Disclaimer

Please do not use the information listed here in-flight or in-navigation, as they are not provided to us by the airports but are provided by volunteers, so they might be outdated.

Search


Regions


Airport information page

Radio informations:
MENDOZA APP/TWR - 119.9 MHz
MENDOZA CON - 124.2 MHz
Ground (GND) - 121.95 MHz
Automatic Terminal Information Service (ATIS) - 114.9 MHz

Airport informations:
Latitude: 32° 49' 54.18" S
Longitude: 068° 47' 34.28" W
Elevation: 2310 feet - 704 meters
Operating hours: 24 hour operations
Operating agency: Military-civil joint use airport
Timezone: UTC-3
Fuel: Jet A1, without icing nhibitor.

100/130 MIL Spec, low lead, aviation gasoline (BLUE)

Unknown fuel type or whether there is any fuel.

Runway information:
18/36 - 9151 x 177 feet< - >2789 x 54 meters

Recent METARs:
SAME 190800Z 23004KT CAVOK 16/06 Q1012
SAME 190800Z 23004KT CAVOK 16/06 Q1012
SAME 190900Z 18003KT CAVOK 15/06 Q1012

Airport on the map: